sensor_id;sensor_type;location;lat;lon;timestamp;P1;durP1;ratioP1;P2;durP2;ratioP2
20101;SDS011;10210;52.284;9.892;2023-02-25T00:00:15;21.33;;;3.90;;
20101;SDS011;10210;52.284;9.892;2023-02-25T00:02:43;19.70;;;3.73;;
20101;SDS011;10210;52.284;9.892;2023-02-25T00:05:13;31.20;;;4.93;;
20101;SDS011;10210;52.284;9.892;2023-02-25T00:07:41;18.83;;;3.83;;
20101;SDS011;10210;52.284;9.892;2023-02-25T00:10:07;24.93;;;3.97;;
20101;SDS011;10210;52.284;9.892;2023-02-25T00:12:35;21.77;;;3.83;;
20101;SDS011;10210;52.284;9.892;2023-02-25T00:15:02;21.50;;;4.00;;
20101;SDS011;10210;52.284;9.892;2023-02-25T00:17:30;21.93;;;4.13;;
20101;SDS011;10210;52.284;9.892;2023-02-25T00:19:57;20.83;;;3.80;;
20101;SDS011;10210;52.284;9.892;2023-02-25T00:22:23;18.83;;;4.10;;
20101;SDS011;10210;52.284;9.892;2023-02-25T00:24:53;19.47;;;3.60;;
20101;SDS011;10210;52.284;9.892;2023-02-25T00:27:20;20.63;;;3.50;;
20101;SDS011;10210;52.284;9.892;2023-02-25T00:29:50;28.47;;;3.90;;
20101;SDS011;10210;52.284;9.892;2023-02-25T00:32:17;27.03;;;4.37;;
20101;SDS011;10210;52.284;9.892;2023-02-25T00:34:44;21.83;;;4.03;;
20101;SDS011;10210;52.284;9.892;2023-02-25T00:37:10;22.23;;;3.80;;
20101;SDS011;10210;52.284;9.892;2023-02-25T00:39:36;18.03;;;3.40;;
20101;SDS011;10210;52.284;9.892;2023-02-25T00:42:08;19.10;;;3.50;;
20101;SDS011;10210;52.284;9.892;2023-02-25T00:44:36;18.47;;;3.50;;
20101;SDS011;10210;52.284;9.892;2023-02-25T00:47:02;16.93;;;3.60;;
20101;SDS011;10210;52.284;9.892;2023-02-25T00:49:28;19.30;;;3.80;;
20101;SDS011;10210;52.284;9.892;2023-02-25T00:51:54;17.90;;;3.10;;
20101;SDS011;10210;52.284;9.892;2023-02-25T00:54:20;21.03;;;3.30;;
20101;SDS011;10210;52.284;9.892;2023-02-25T00:56:46;21.97;;;3.40;;
20101;SDS011;10210;52.284;9.892;2023-02-25T00:59:12;21.40;;;3.50;;
20101;SDS011;10210;52.284;9.892;2023-02-25T01:01:38;18.30;;;4.30;;
20101;SDS011;10210;52.284;9.892;2023-02-25T01:04:05;13.13;;;3.07;;
20101;SDS011;10210;52.284;9.892;2023-02-25T01:06:32;20.57;;;3.97;;
20101;SDS011;10210;52.284;9.892;2023-02-25T01:09:00;14.03;;;3.20;;
20101;SDS011;10210;52.284;9.892;2023-02-25T01:11:30;19.43;;;4.07;;
20101;SDS011;10210;52.284;9.892;2023-02-25T01:14:01;18.30;;;3.57;;
20101;SDS011;10210;52.284;9.892;2023-02-25T01:16:31;13.77;;;3.03;;
20101;SDS011;10210;52.284;9.892;2023-02-25T01:19:00;15.53;;;3.07;;
20101;SDS011;10210;52.284;9.892;2023-02-25T01:21:32;18.03;;;3.27;;
20101;SDS011;10210;52.284;9.892;2023-02-25T01:24:05;17.13;;;3.93;;
20101;SDS011;10210;52.284;9.892;2023-02-25T01:26:42;14.77;;;3.00;;
20101;SDS011;10210;52.284;9.892;2023-02-25T01:29:11;12.63;;;2.90;;
20101;SDS011;10210;52.284;9.892;2023-02-25T01:31:40;16.97;;;3.53;;
20101;SDS011;10210;52.284;9.892;2023-02-25T01:34:07;18.30;;;3.00;;
20101;SDS011;10210;52.284;9.892;2023-02-25T01:36:40;17.50;;;3.20;;
20101;SDS011;10210;52.284;9.892;2023-02-25T01:39:06;12.23;;;3.10;;
20101;SDS011;10210;52.284;9.892;2023-02-25T01:41:32;16.27;;;3.57;;
20101;SDS011;10210;52.284;9.892;2023-02-25T01:44:08;14.30;;;3.13;;
20101;SDS011;10210;52.284;9.892;2023-02-25T01:46:55;12.90;;;3.33;;
20101;SDS011;10210;52.284;9.892;2023-02-25T01:49:24;18.03;;;3.50;;
20101;SDS011;10210;52.284;9.892;2023-02-25T01:52:21;16.43;;;4.27;;
20101;SDS011;10210;52.284;9.892;2023-02-25T01:54:50;21.40;;;4.37;;
20101;SDS011;10210;52.284;9.892;2023-02-25T01:57:21;19.90;;;3.97;;
20101;SDS011;10210;52.284;9.892;2023-02-25T01:59:48;17.87;;;3.70;;
20101;SDS011;10210;52.284;9.892;2023-02-25T02:02:19;16.83;;;3.70;;
20101;SDS011;10210;52.284;9.892;2023-02-25T02:04:48;24.37;;;3.73;;
20101;SDS011;10210;52.284;9.892;2023-02-25T02:07:17;19.67;;;4.27;;
20101;SDS011;10210;52.284;9.892;2023-02-25T02:09:46;17.47;;;3.57;;
20101;SDS011;10210;52.284;9.892;2023-02-25T02:12:22;19.03;;;3.77;;
20101;SDS011;10210;52.284;9.892;2023-02-25T02:15:03;19.53;;;3.20;;
20101;SDS011;10210;52.284;9.892;2023-02-25T02:17:40;18.20;;;3.37;;
20101;SDS011;10210;52.284;9.892;2023-02-25T02:23:43;18.30;;;3.90;;
20101;SDS011;10210;52.284;9.892;2023-02-25T02:38:09;21.37;;;3.93;;
20101;SDS011;10210;52.284;9.892;2023-02-25T02:49:08;16.63;;;3.77;;
20101;SDS011;10210;52.284;9.892;2023-02-25T02:52:16;15.17;;;3.00;;
20101;SDS011;10210;52.284;9.892;2023-02-25T02:54:51;17.60;;;3.23;;
20101;SDS011;10210;52.284;9.892;2023-02-25T02:57:26;20.97;;;3.73;;
20101;SDS011;10210;52.284;9.892;2023-02-25T02:59:57;16.63;;;3.40;;
20101;SDS011;10210;52.284;9.892;2023-02-25T03:02:37;15.03;;;3.30;;
20101;SDS011;10210;52.284;9.892;2023-02-25T03:05:08;14.57;;;2.90;;
20101;SDS011;10210;52.284;9.892;2023-02-25T03:07:42;18.70;;;3.03;;
20101;SDS011;10210;52.284;9.892;2023-02-25T03:10:31;19.30;;;3.40;;
20101;SDS011;10210;52.284;9.892;2023-02-25T03:12:57;16.10;;;3.23;;
20101;SDS011;10210;52.284;9.892;2023-02-25T03:15:23;11.50;;;2.67;;
20101;SDS011;10210;52.284;9.892;2023-02-25T03:17:54;10.70;;;2.47;;
20101;SDS011;10210;52.284;9.892;2023-02-25T03:20:29;12.43;;;3.00;;
20101;SDS011;10210;52.284;9.892;2023-02-25T03:23:05;13.37;;;2.77;;
20101;SDS011;10210;52.284;9.892;2023-02-25T03:26:37;12.90;;;3.20;;
20101;SDS011;10210;52.284;9.892;2023-02-25T03:28:54;17.43;;;3.77;;
20101;SDS011;10210;52.284;9.892;2023-02-25T03:31:31;12.27;;;2.47;;
20101;SDS011;10210;52.284;9.892;2023-02-25T03:34:08;13.87;;;2.60;;
20101;SDS011;10210;52.284;9.892;2023-02-25T03:36:42;18.10;;;2.80;;
20101;SDS011;10210;52.284;9.892;2023-02-25T03:39:17;12.33;;;2.53;;
20101;SDS011;10210;52.284;9.892;2023-02-25T03:41:51;18.63;;;2.70;;
20101;SDS011;10210;52.284;9.892;2023-02-25T03:44:22;15.73;;;2.53;;
20101;SDS011;10210;52.284;9.892;2023-02-25T03:47:03;13.23;;;2.63;;
20101;SDS011;10210;52.284;9.892;2023-02-25T03:49:33;11.03;;;2.20;;
20101;SDS011;10210;52.284;9.892;2023-02-25T03:52:09;12.27;;;2.57;;
20101;SDS011;10210;52.284;9.892;2023-02-25T03:54:41;11.63;;;2.50;;
20101;SDS011;10210;52.284;9.892;2023-02-25T03:57:07;12.33;;;2.43;;
20101;SDS011;10210;52.284;9.892;2023-02-25T03:59:33;10.30;;;2.43;;
20101;SDS011;10210;52.284;9.892;2023-02-25T04:01:59;13.03;;;2.67;;
20101;SDS011;10210;52.284;9.892;2023-02-25T04:04:26;10.57;;;2.70;;
20101;SDS011;10210;52.284;9.892;2023-02-25T04:06:52;15.93;;;2.90;;
20101;SDS011;10210;52.284;9.892;2023-02-25T04:09:18;12.70;;;2.80;;
20101;SDS011;10210;52.284;9.892;2023-02-25T04:11:47;13.97;;;2.67;;
20101;SDS011;10210;52.284;9.892;2023-02-25T04:14:13;15.60;;;2.60;;
20101;SDS011;10210;52.284;9.892;2023-02-25T04:16:39;16.10;;;2.50;;
20101;SDS011;10210;52.284;9.892;2023-02-25T04:19:05;17.10;;;3.53;;
20101;SDS011;10210;52.284;9.892;2023-02-25T04:21:32;15.43;;;2.73;;
20101;SDS011;10210;52.284;9.892;2023-02-25T04:24:01;15.30;;;3.10;;
20101;SDS011;10210;52.284;9.892;2023-02-25T04:26:30;14.97;;;3.37;;
20101;SDS011;10210;52.284;9.892;2023-02-25T04:28:57;16.13;;;3.43;;
20101;SDS011;10210;52.284;9.892;2023-02-25T04:31:23;14.53;;;4.17;;
20101;SDS011;10210;52.284;9.892;2023-02-25T04:33:49;14.87;;;4.40;;
20101;SDS011;10210;52.284;9.892;2023-02-25T04:36:21;15.60;;;5.20;;
20101;SDS011;10210;52.284;9.892;2023-02-25T04:38:54;19.23;;;5.13;;
20101;SDS011;10210;52.284;9.892;2023-02-25T04:41:21;15.97;;;5.10;;
20101;SDS011;10210;52.284;9.892;2023-02-25T04:43:48;15.97;;;3.63;;
20101;SDS011;10210;52.284;9.892;2023-02-25T04:46:14;12.50;;;3.53;;
20101;SDS011;10210;52.284;9.892;2023-02-25T04:48:40;11.30;;;2.67;;
20101;SDS011;10210;52.284;9.892;2023-02-25T04:51:06;12.63;;;2.60;;
20101;SDS011;10210;52.284;9.892;2023-02-25T04:53:32;10.07;;;2.37;;
20101;SDS011;10210;52.284;9.892;2023-02-25T04:56:02;11.23;;;2.10;;
20101;SDS011;10210;52.284;9.892;2023-02-25T04:58:30;11.13;;;2.27;;
20101;SDS011;10210;52.284;9.892;2023-02-25T05:00:58;10.73;;;1.93;;
20101;SDS011;10210;52.284;9.892;2023-02-25T05:03:25;12.83;;;2.60;;
20101;SDS011;10210;52.284;9.892;2023-02-25T05:05:52;13.00;;;2.13;;
20101;SDS011;10210;52.284;9.892;2023-02-25T05:08:18;13.77;;;2.30;;
20101;SDS011;10210;52.284;9.892;2023-02-25T05:10:44;13.77;;;2.97;;
20101;SDS011;10210;52.284;9.892;2023-02-25T05:13:10;14.60;;;3.00;;
20101;SDS011;10210;52.284;9.892;2023-02-25T05:15:36;11.60;;;2.60;;
20101;SDS011;10210;52.284;9.892;2023-02-25T05:18:01;12.43;;;2.77;;
20101;SDS011;10210;52.284;9.892;2023-02-25T05:20:27;11.63;;;2.27;;
20101;SDS011;10210;52.284;9.892;2023-02-25T05:22:53;12.07;;;2.40;;
20101;SDS011;10210;52.284;9.892;2023-02-25T05:25:19;10.23;;;2.30;;
20101;SDS011;10210;52.284;9.892;2023-02-25T05:27:45;11.70;;;2.17;;
20101;SDS011;10210;52.284;9.892;2023-02-25T05:30:11;9.53;;;2.03;;
20101;SDS011;10210;52.284;9.892;2023-02-25T05:32:38;18.67;;;2.80;;
20101;SDS011;10210;52.284;9.892;2023-02-25T05:35:04;12.07;;;2.27;;
20101;SDS011;10210;52.284;9.892;2023-02-25T05:37:35;11.27;;;1.93;;
20101;SDS011;10210;52.284;9.892;2023-02-25T05:40:01;9.47;;;2.17;;
20101;SDS011;10210;52.284;9.892;2023-02-25T05:42:28;10.87;;;2.20;;
20101;SDS011;10210;52.284;9.892;2023-02-25T05:44:53;7.77;;;2.00;;
20101;SDS011;10210;52.284;9.892;2023-02-25T05:47:19;9.73;;;1.83;;
20101;SDS011;10210;52.284;9.892;2023-02-25T05:49:45;10.17;;;2.17;;
20101;SDS011;10210;52.284;9.892;2023-02-25T05:52:12;10.93;;;2.00;;
20101;SDS011;10210;52.284;9.892;2023-02-25T05:54:38;10.10;;;2.10;;
20101;SDS011;10210;52.284;9.892;2023-02-25T05:57:04;11.23;;;1.80;;
20101;SDS011;10210;52.284;9.892;2023-02-25T05:59:30;8.73;;;1.87;;
20101;SDS011;10210;52.284;9.892;2023-02-25T06:01:56;8.13;;;2.00;;
20101;SDS011;10210;52.284;9.892;2023-02-25T06:04:23;8.13;;;1.60;;
20101;SDS011;10210;52.284;9.892;2023-02-25T06:06:49;7.20;;;1.60;;
20101;SDS011;10210;52.284;9.892;2023-02-25T06:09:16;8.33;;;1.70;;
20101;SDS011;10210;52.284;9.892;2023-02-25T06:11:42;6.17;;;1.63;;
20101;SDS011;10210;52.284;9.892;2023-02-25T06:14:10;3.47;;;1.27;;
20101;SDS011;10210;52.284;9.892;2023-02-25T06:16:37;8.60;;;1.80;;
20101;SDS011;10210;52.284;9.892;2023-02-25T06:19:03;7.70;;;1.73;;
20101;SDS011;10210;52.284;9.892;2023-02-25T06:21:33;7.57;;;1.77;;
20101;SDS011;10210;52.284;9.892;2023-02-25T06:24:00;5.97;;;1.83;;
20101;SDS011;10210;52.284;9.892;2023-02-25T06:26:27;6.97;;;1.60;;
20101;SDS011;10210;52.284;9.892;2023-02-25T06:28:53;7.57;;;1.80;;
20101;SDS011;10210;52.284;9.892;2023-02-25T06:31:21;5.50;;;1.40;;
20101;SDS011;10210;52.284;9.892;2023-02-25T06:33:48;7.00;;;1.50;;
20101;SDS011;10210;52.284;9.892;2023-02-25T06:36:15;6.20;;;1.53;;
20101;SDS011;10210;52.284;9.892;2023-02-25T06:38:44;5.63;;;1.50;;
20101;SDS011;10210;52.284;9.892;2023-02-25T06:41:14;5.13;;;1.30;;
20101;SDS011;10210;52.284;9.892;2023-02-25T06:43:42;6.00;;;1.63;;
20101;SDS011;10210;52.284;9.892;2023-02-25T06:46:10;4.57;;;1.37;;
20101;SDS011;10210;52.284;9.892;2023-02-25T06:48:38;6.07;;;1.63;;
20101;SDS011;10210;52.284;9.892;2023-02-25T06:51:05;5.27;;;1.37;;
20101;SDS011;10210;52.284;9.892;2023-02-25T06:53:34;7.50;;;1.70;;
20101;SDS011;10210;52.284;9.892;2023-02-25T06:56:05;6.53;;;1.37;;
20101;SDS011;10210;52.284;9.892;2023-02-25T06:58:34;5.30;;;1.40;;
20101;SDS011;10210;52.284;9.892;2023-02-25T07:01:04;5.33;;;1.40;;
20101;SDS011;10210;52.284;9.892;2023-02-25T07:03:31;5.50;;;1.50;;
20101;SDS011;10210;52.284;9.892;2023-02-25T07:05:57;2.83;;;1.30;;
20101;SDS011;10210;52.284;9.892;2023-02-25T07:08:23;6.10;;;1.97;;
20101;SDS011;10210;52.284;9.892;2023-02-25T07:10:49;7.67;;;1.60;;
20101;SDS011;10210;52.284;9.892;2023-02-25T07:13:14;4.20;;;1.30;;
20101;SDS011;10210;52.284;9.892;2023-02-25T07:15:40;5.50;;;1.50;;
20101;SDS011;10210;52.284;9.892;2023-02-25T07:18:06;4.27;;;1.13;;
20101;SDS011;10210;52.284;9.892;2023-02-25T07:20:31;6.13;;;1.50;;
20101;SDS011;10210;52.284;9.892;2023-02-25T07:22:57;5.07;;;1.20;;
20101;SDS011;10210;52.284;9.892;2023-02-25T07:25:25;3.63;;;1.30;;
20101;SDS011;10210;52.284;9.892;2023-02-25T07:27:51;5.60;;;1.30;;
20101;SDS011;10210;52.284;9.892;2023-02-25T07:30:18;4.40;;;1.30;;
20101;SDS011;10210;52.284;9.892;2023-02-25T07:32:44;4.67;;;1.30;;
20101;SDS011;10210;52.284;9.892;2023-02-25T07:35:10;6.37;;;1.57;;
20101;SDS011;10210;52.284;9.892;2023-02-25T07:37:36;4.13;;;1.20;;
20101;SDS011;10210;52.284;9.892;2023-02-25T07:40:03;4.97;;;1.20;;
20101;SDS011;10210;52.284;9.892;2023-02-25T07:42:37;4.33;;;1.20;;
20101;SDS011;10210;52.284;9.892;2023-02-25T07:45:04;4.20;;;1.20;;
20101;SDS011;10210;52.284;9.892;2023-02-25T07:47:31;7.87;;;1.50;;
20101;SDS011;10210;52.284;9.892;2023-02-25T07:49:57;6.23;;;1.57;;
20101;SDS011;10210;52.284;9.892;2023-02-25T07:52:22;8.60;;;1.40;;
20101;SDS011;10210;52.284;9.892;2023-02-25T07:54:48;5.00;;;1.20;;
20101;SDS011;10210;52.284;9.892;2023-02-25T07:57:14;4.13;;;1.20;;
20101;SDS011;10210;52.284;9.892;2023-02-25T07:59:39;5.00;;;1.30;;
20101;SDS011;10210;52.284;9.892;2023-02-25T08:02:05;5.40;;;1.17;;
20101;SDS011;10210;52.284;9.892;2023-02-25T08:04:34;2.97;;;1.10;;
20101;SDS011;10210;52.284;9.892;2023-02-25T08:07:00;3.83;;;1.20;;
20101;SDS011;10210;52.284;9.892;2023-02-25T08:09:26;6.27;;;1.57;;
20101;SDS011;10210;52.284;9.892;2023-02-25T08:11:52;5.20;;;1.33;;
20101;SDS011;10210;52.284;9.892;2023-02-25T08:14:18;3.27;;;1.20;;
20101;SDS011;10210;52.284;9.892;2023-02-25T08:16:47;5.90;;;1.30;;
20101;SDS011;10210;52.284;9.892;2023-02-25T08:19:13;4.20;;;1.37;;
20101;SDS011;10210;52.284;9.892;2023-02-25T08:21:40;7.07;;;1.40;;
20101;SDS011;10210;52.284;9.892;2023-02-25T08:24:06;4.03;;;1.50;;
20101;SDS011;10210;52.284;9.892;2023-02-25T08:26:32;4.87;;;1.30;;
20101;SDS011;10210;52.284;9.892;2023-02-25T08:28:58;4.90;;;1.50;;
20101;SDS011;10210;52.284;9.892;2023-02-25T08:31:24;7.73;;;1.40;;
20101;SDS011;10210;52.284;9.892;2023-02-25T08:33:51;5.83;;;1.63;;
20101;SDS011;10210;52.284;9.892;2023-02-25T08:36:18;5.33;;;1.43;;
20101;SDS011;10210;52.284;9.892;2023-02-25T08:38:49;6.43;;;1.33;;
20101;SDS011;10210;52.284;9.892;2023-02-25T08:41:16;5.37;;;1.50;;
20101;SDS011;10210;52.284;9.892;2023-02-25T08:43:51;5.90;;;1.27;;
20101;SDS011;10210;52.284;9.892;2023-02-25T08:46:22;5.83;;;1.40;;
20101;SDS011;10210;52.284;9.892;2023-02-25T08:48:52;5.90;;;1.10;;
20101;SDS011;10210;52.284;9.892;2023-02-25T08:51:23;3.80;;;1.07;;
20101;SDS011;10210;52.284;9.892;2023-02-25T08:53:57;4.00;;;1.33;;
20101;SDS011;10210;52.284;9.892;2023-02-25T08:56:30;3.50;;;1.20;;
20101;SDS011;10210;52.284;9.892;2023-02-25T08:58:56;5.87;;;1.37;;
20101;SDS011;10210;52.284;9.892;2023-02-25T09:01:22;7.73;;;1.50;;
20101;SDS011;10210;52.284;9.892;2023-02-25T09:03:48;4.40;;;1.27;;
20101;SDS011;10210;52.284;9.892;2023-02-25T09:06:26;6.17;;;1.40;;
20101;SDS011;10210;52.284;9.892;2023-02-25T09:08:52;5.57;;;1.30;;
20101;SDS011;10210;52.284;9.892;2023-02-25T09:11:20;4.53;;;1.40;;
20101;SDS011;10210;52.284;9.892;2023-02-25T09:13:47;3.60;;;0.90;;
20101;SDS011;10210;52.284;9.892;2023-02-25T09:16:13;5.73;;;1.53;;
20101;SDS011;10210;52.284;9.892;2023-02-25T09:18:41;5.33;;;1.30;;
20101;SDS011;10210;52.284;9.892;2023-02-25T09:21:08;4.10;;;1.13;;
20101;SDS011;10210;52.284;9.892;2023-02-25T09:23:35;9.73;;;1.80;;
20101;SDS011;10210;52.284;9.892;2023-02-25T09:26:04;2.93;;;1.07;;
20101;SDS011;10210;52.284;9.892;2023-02-25T09:28:31;6.67;;;1.43;;
20101;SDS011;10210;52.284;9.892;2023-02-25T09:30:58;4.57;;;1.07;;
20101;SDS011;10210;52.284;9.892;2023-02-25T09:33:26;6.63;;;1.33;;
20101;SDS011;10210;52.284;9.892;2023-02-25T09:35:53;3.87;;;1.20;;
20101;SDS011;10210;52.284;9.892;2023-02-25T09:38:19;4.20;;;1.17;;
20101;SDS011;10210;52.284;9.892;2023-02-25T09:40:45;6.20;;;1.13;;
20101;SDS011;10210;52.284;9.892;2023-02-25T09:43:20;7.83;;;1.50;;
20101;SDS011;10210;52.284;9.892;2023-02-25T09:46:01;3.27;;;1.30;;
20101;SDS011;10210;52.284;9.892;2023-02-25T09:48:39;3.53;;;1.07;;
20101;SDS011;10210;52.284;9.892;2023-02-25T09:51:18;5.47;;;1.80;;
20101;SDS011;10210;52.284;9.892;2023-02-25T09:54:09;2.83;;;1.20;;
20101;SDS011;10210;52.284;9.892;2023-02-25T09:56:42;3.63;;;1.10;;
20101;SDS011;10210;52.284;9.892;2023-02-25T09:59:15;7.93;;;1.33;;
20101;SDS011;10210;52.284;9.892;2023-02-25T10:01:48;4.33;;;1.40;;
20101;SDS011;10210;52.284;9.892;2023-02-25T10:07:23;4.93;;;1.30;;
20101;SDS011;10210;52.284;9.892;2023-02-25T10:10:00;5.83;;;1.30;;
20101;SDS011;10210;52.284;9.892;2023-02-25T10:12:55;3.67;;;1.10;;
20101;SDS011;10210;52.284;9.892;2023-02-25T10:21:37;2.73;;;1.20;;
20101;SDS011;10210;52.284;9.892;2023-02-25T10:27:34;5.53;;;1.40;;
20101;SDS011;10210;52.284;9.892;2023-02-25T10:30:06;5.33;;;1.57;;
20101;SDS011;10210;52.284;9.892;2023-02-25T10:32:42;6.40;;;1.67;;
20101;SDS011;10210;52.284;9.892;2023-02-25T10:35:22;2.53;;;1.10;;
20101;SDS011;10210;52.284;9.892;2023-02-25T10:37:51;3.67;;;1.50;;
20101;SDS011;10210;52.284;9.892;2023-02-25T10:40:20;5.07;;;1.50;;
20101;SDS011;10210;52.284;9.892;2023-02-25T10:42:50;6.17;;;1.40;;
20101;SDS011;10210;52.284;9.892;2023-02-25T10:45:21;4.73;;;1.30;;
20101;SDS011;10210;52.284;9.892;2023-02-25T10:48:06;3.17;;;1.87;;
20101;SDS011;10210;52.284;9.892;2023-02-25T10:50:43;3.30;;;1.10;;
20101;SDS011;10210;52.284;9.892;2023-02-25T10:56:46;6.43;;;1.80;;
20101;SDS011;10210;52.284;9.892;2023-02-25T10:59:28;5.87;;;1.50;;
20101;SDS011;10210;52.284;9.892;2023-02-25T11:02:01;3.60;;;1.40;;
20101;SDS011;10210;52.284;9.892;2023-02-25T11:04:50;3.83;;;1.30;;
20101;SDS011;10210;52.284;9.892;2023-02-25T11:07:26;5.87;;;1.50;;
20101;SDS011;10210;52.284;9.892;2023-02-25T11:12:45;4.03;;;1.30;;
20101;SDS011;10210;52.284;9.892;2023-02-25T11:18:06;3.30;;;1.40;;
20101;SDS011;10210;52.284;9.892;2023-02-25T11:20:47;2.50;;;1.27;;
20101;SDS011;10210;52.284;9.892;2023-02-25T11:23:33;3.17;;;1.33;;
20101;SDS011;10210;52.284;9.892;2023-02-25T11:26:08;2.80;;;1.17;;
20101;SDS011;10210;52.284;9.892;2023-02-25T11:28:53;4.90;;;1.10;;
20101;SDS011;10210;52.284;9.892;2023-02-25T11:31:24;5.27;;;1.40;;
20101;SDS011;10210;52.284;9.892;2023-02-25T11:34:00;8.57;;;1.60;;
20101;SDS011;10210;52.284;9.892;2023-02-25T11:36:35;3.47;;;1.47;;
20101;SDS011;10210;52.284;9.892;2023-02-25T11:39:17;3.67;;;1.40;;
20101;SDS011;10210;52.284;9.892;2023-02-25T11:41:48;7.83;;;1.90;;
20101;SDS011;10210;52.284;9.892;2023-02-25T11:46:48;7.33;;;2.17;;
20101;SDS011;10210;52.284;9.892;2023-02-25T11:49:35;4.83;;;1.90;;
20101;SDS011;10210;52.284;9.892;2023-02-25T11:52:08;4.97;;;1.73;;
20101;SDS011;10210;52.284;9.892;2023-02-25T11:58:21;6.70;;;1.77;;
20101;SDS011;10210;52.284;9.892;2023-02-25T12:04:54;7.40;;;2.20;;
20101;SDS011;10210;52.284;9.892;2023-02-25T12:10:40;5.33;;;1.87;;
20101;SDS011;10210;52.284;9.892;2023-02-25T12:16:08;8.43;;;1.70;;
20101;SDS011;10210;52.284;9.892;2023-02-25T12:22:12;6.20;;;1.70;;
20101;SDS011;10210;52.284;9.892;2023-02-25T12:25:25;5.73;;;1.60;;
20101;SDS011;10210;52.284;9.892;2023-02-25T12:31:10;6.17;;;1.60;;
20101;SDS011;10210;52.284;9.892;2023-02-25T12:34:13;4.87;;;1.40;;
20101;SDS011;10210;52.284;9.892;2023-02-25T12:37:23;7.73;;;1.70;;
20101;SDS011;10210;52.284;9.892;2023-02-25T12:49:05;3.97;;;1.20;;
20101;SDS011;10210;52.284;9.892;2023-02-25T13:08:14;6.63;;;1.50;;
20101;SDS011;10210;52.284;9.892;2023-02-25T13:11:28;7.90;;;1.70;;
20101;SDS011;10210;52.284;9.892;2023-02-25T13:14:11;5.73;;;1.33;;
20101;SDS011;10210;52.284;9.892;2023-02-25T13:23:05;5.37;;;1.37;;
20101;SDS011;10210;52.284;9.892;2023-02-25T13:32:15;4.20;;;1.20;;
20101;SDS011;10210;52.284;9.892;2023-02-25T13:41:36;5.13;;;1.20;;
20101;SDS011;10210;52.284;9.892;2023-02-25T13:44:36;6.70;;;1.50;;
20101;SDS011;10210;52.284;9.892;2023-02-25T13:47:31;3.30;;;1.10;;
20101;SDS011;10210;52.284;9.892;2023-02-25T13:53:37;4.03;;;1.20;;
20101;SDS011;10210;52.284;9.892;2023-02-25T13:59:33;6.20;;;1.10;;
20101;SDS011;10210;52.284;9.892;2023-02-25T14:09:09;25.10;;;9.97;;
20101;SDS011;10210;52.284;9.892;2023-02-25T14:17:47;7.03;;;2.03;;
20101;SDS011;10210;52.284;9.892;2023-02-25T14:20:30;7.33;;;3.00;;
20101;SDS011;10210;52.284;9.892;2023-02-25T14:32:29;6.03;;;1.53;;
20101;SDS011;10210;52.284;9.892;2023-02-25T14:38:13;12.97;;;3.80;;
20101;SDS011;10210;52.284;9.892;2023-02-25T14:43:41;6.33;;;1.70;;
20101;SDS011;10210;52.284;9.892;2023-02-25T14:46:21;9.23;;;1.90;;
20101;SDS011;10210;52.284;9.892;2023-02-25T14:49:14;7.97;;;2.07;;
20101;SDS011;10210;52.284;9.892;2023-02-25T15:10:00;7.87;;;1.50;;
20101;SDS011;10210;52.284;9.892;2023-02-25T15:15:42;6.83;;;1.57;;
20101;SDS011;10210;52.284;9.892;2023-02-25T15:21:47;8.17;;;1.90;;
20101;SDS011;10210;52.284;9.892;2023-02-25T15:26:54;7.63;;;1.83;;
20101;SDS011;10210;52.284;9.892;2023-02-25T15:32:08;6.03;;;1.87;;
20101;SDS011;10210;52.284;9.892;2023-02-25T15:34:58;7.23;;;1.77;;
20101;SDS011;10210;52.284;9.892;2023-02-25T15:37:34;6.73;;;2.17;;
20101;SDS011;10210;52.284;9.892;2023-02-25T15:40:44;10.40;;;2.70;;
20101;SDS011;10210;52.284;9.892;2023-02-25T15:45:48;7.83;;;1.53;;
20101;SDS011;10210;52.284;9.892;2023-02-25T15:48:33;7.03;;;2.10;;
20101;SDS011;10210;52.284;9.892;2023-02-25T15:51:02;7.53;;;2.50;;
20101;SDS011;10210;52.284;9.892;2023-02-25T15:53:39;8.67;;;2.20;;
20101;SDS011;10210;52.284;9.892;2023-02-25T15:58:51;12.13;;;4.20;;
20101;SDS011;10210;52.284;9.892;2023-02-25T16:04:44;10.70;;;3.60;;
20101;SDS011;10210;52.284;9.892;2023-02-25T16:07:15;17.60;;;6.67;;
20101;SDS011;10210;52.284;9.892;2023-02-25T16:09:56;9.93;;;2.13;;
20101;SDS011;10210;52.284;9.892;2023-02-25T16:12:29;14.07;;;3.80;;
20101;SDS011;10210;52.284;9.892;2023-02-25T16:14:58;8.17;;;1.93;;
20101;SDS011;10210;52.284;9.892;2023-02-25T16:17:33;7.33;;;1.67;;
20101;SDS011;10210;52.284;9.892;2023-02-25T16:20:22;6.97;;;1.60;;
20101;SDS011;10210;52.284;9.892;2023-02-25T16:23:12;8.47;;;1.77;;
20101;SDS011;10210;52.284;9.892;2023-02-25T16:25:51;5.17;;;1.60;;
20101;SDS011;10210;52.284;9.892;2023-02-25T16:37:28;6.47;;;1.77;;
20101;SDS011;10210;52.284;9.892;2023-02-25T16:40:14;7.70;;;2.00;;
20101;SDS011;10210;52.284;9.892;2023-02-25T16:42:50;9.33;;;1.90;;
20101;SDS011;10210;52.284;9.892;2023-02-25T16:45:22;8.20;;;2.43;;
20101;SDS011;10210;52.284;9.892;2023-02-25T16:48:05;9.20;;;2.40;;
20101;SDS011;10210;52.284;9.892;2023-02-25T16:50:38;7.20;;;1.80;;
20101;SDS011;10210;52.284;9.892;2023-02-25T16:53:04;5.70;;;1.77;;
20101;SDS011;10210;52.284;9.892;2023-02-25T16:55:41;10.57;;;1.80;;
20101;SDS011;10210;52.284;9.892;2023-02-25T17:01:19;8.03;;;2.23;;
20101;SDS011;10210;52.284;9.892;2023-02-25T17:03:46;9.83;;;2.07;;
20101;SDS011;10210;52.284;9.892;2023-02-25T17:06:16;6.90;;;2.03;;
20101;SDS011;10210;52.284;9.892;2023-02-25T17:08:45;14.33;;;4.87;;
20101;SDS011;10210;52.284;9.892;2023-02-25T17:11:15;8.13;;;2.70;;
20101;SDS011;10210;52.284;9.892;2023-02-25T17:13:49;9.20;;;3.00;;
20101;SDS011;10210;52.284;9.892;2023-02-25T17:19:07;10.33;;;2.20;;
20101;SDS011;10210;52.284;9.892;2023-02-25T17:21:37;8.90;;;2.17;;
20101;SDS011;10210;52.284;9.892;2023-02-25T17:24:11;9.23;;;2.43;;
20101;SDS011;10210;52.284;9.892;2023-02-25T17:26:43;8.87;;;2.13;;
20101;SDS011;10210;52.284;9.892;2023-02-25T17:29:15;8.00;;;2.50;;
20101;SDS011;10210;52.284;9.892;2023-02-25T17:34:18;7.03;;;1.87;;
20101;SDS011;10210;52.284;9.892;2023-02-25T17:36:53;8.93;;;2.30;;
20101;SDS011;10210;52.284;9.892;2023-02-25T17:39:23;7.73;;;1.70;;
20101;SDS011;10210;52.284;9.892;2023-02-25T17:41:51;10.00;;;2.80;;
20101;SDS011;10210;52.284;9.892;2023-02-25T17:47:07;11.07;;;4.40;;
20101;SDS011;10210;52.284;9.892;2023-02-25T17:49:37;10.20;;;3.73;;
20101;SDS011;10210;52.284;9.892;2023-02-25T17:52:14;14.30;;;5.70;;
20101;SDS011;10210;52.284;9.892;2023-02-25T17:54:47;11.20;;;2.97;;
20101;SDS011;10210;52.284;9.892;2023-02-25T17:57:22;10.77;;;2.33;;
20101;SDS011;10210;52.284;9.892;2023-02-25T17:59:56;9.17;;;1.93;;
20101;SDS011;10210;52.284;9.892;2023-02-25T18:02:33;6.50;;;1.73;;
20101;SDS011;10210;52.284;9.892;2023-02-25T18:05:12;6.53;;;2.10;;
20101;SDS011;10210;52.284;9.892;2023-02-25T18:10:56;10.50;;;2.20;;
20101;SDS011;10210;52.284;9.892;2023-02-25T18:13:53;7.17;;;1.90;;
20101;SDS011;10210;52.284;9.892;2023-02-25T18:19:08;12.27;;;4.10;;
20101;SDS011;10210;52.284;9.892;2023-02-25T18:22:06;11.57;;;2.83;;
20101;SDS011;10210;52.284;9.892;2023-02-25T18:24:54;8.83;;;2.30;;
20101;SDS011;10210;52.284;9.892;2023-02-25T18:27:24;9.03;;;1.97;;
20101;SDS011;10210;52.284;9.892;2023-02-25T18:29:57;9.47;;;1.80;;
20101;SDS011;10210;52.284;9.892;2023-02-25T18:32:38;9.13;;;1.83;;
20101;SDS011;10210;52.284;9.892;2023-02-25T18:35:04;12.53;;;2.30;;
20101;SDS011;10210;52.284;9.892;2023-02-25T18:37:31;6.17;;;2.03;;
20101;SDS011;10210;52.284;9.892;2023-02-25T18:39:58;9.27;;;2.10;;
20101;SDS011;10210;52.284;9.892;2023-02-25T18:42:24;11.93;;;4.20;;
20101;SDS011;10210;52.284;9.892;2023-02-25T18:44:50;10.00;;;2.77;;